Kanawha City, West Virginia
Current Conditions -  °F | °C
As of 5:54 PM on Wednesday 22 Oct 2014 (Local Time) from KCRW Reporting Station
Overcast Overcast  
Wind Chill: 10°   Ceiling: 2000
Heat Index: 10°   Visibility: 10mi
Dew Point:   Wind: 6mph
Humidity: 80%   Direction: 320°NW
Pressure: 30.19"   Gusts: NA
Location:  38.301°N, 81.5932°W
Report Text: KCRW 222154Z 32005KT 10SM OVC020 10/07 A3019 RMK AO2 SLP226 T01000067
Loading
Personal Weather Stations






























Interactive Weather Map
Tropical Storm Tracking
New forecast layout! Learn more

10-Day Weather Forecast

Advertisements
Track Severe Weather on mobile